createdAt,value
2022-10-01T00:02:15.761Z,80.93
2022-10-01T00:04:44.377Z,81.49
2022-10-01T00:07:15.411Z,80.73
2022-10-01T00:09:44.194Z,81.04
2022-10-01T00:12:16.001Z,81.25
2022-10-01T00:14:46.055Z,81.06
2022-10-01T00:17:14.682Z,81.63
2022-10-01T00:19:43.322Z,81.78
2022-10-01T00:22:12.055Z,82.04
2022-10-01T00:24:40.955Z,81.85
2022-10-01T00:27:11.007Z,81.97
2022-10-01T00:29:39.694Z,82.21
2022-10-01T00:32:10.048Z,82.09
2022-10-01T00:34:38.723Z,81.68
2022-10-01T00:37:09.659Z,81.51
2022-10-01T00:39:38.662Z,81.70
2022-10-01T00:42:19.640Z,81.81
2022-10-01T00:44:49.345Z,81.99
2022-10-01T00:47:30.358Z,82.09
2022-10-01T00:50:08.494Z,81.55
2022-10-01T00:52:42.713Z,82.10
2022-10-01T00:55:18.276Z,81.61
2022-10-01T00:57:47.291Z,81.67
2022-10-01T01:00:16.716Z,81.48
2022-10-01T01:02:47.125Z,82.00
2022-10-01T01:05:16.165Z,82.08
2022-10-01T01:07:50.004Z,81.96
2022-10-01T01:10:29.940Z,81.85
2022-10-01T01:13:18.167Z,81.89
2022-10-01T01:15:57.631Z,82.17
2022-10-01T01:18:36.568Z,81.29
2022-10-01T01:21:23.092Z,81.48
2022-10-01T01:24:39.556Z,81.29
2022-10-01T01:27:29.088Z,81.44
2022-10-01T01:30:06.159Z,81.11
2022-10-01T01:32:49.177Z,81.42
2022-10-01T01:35:32.324Z,81.73
2022-10-01T01:38:09.404Z,81.51
2022-10-01T01:40:43.622Z,81.45
2022-10-01T01:43:20.653Z,81.44
2022-10-01T01:45:55.353Z,80.38
2022-10-01T01:48:25.764Z,80.70
2022-10-01T01:51:04.181Z,80.50
2022-10-01T01:53:34.143Z,79.81
2022-10-01T01:56:03.399Z,80.71
2022-10-01T01:58:35.849Z,80.15
2022-10-01T02:01:06.709Z,80.69
2022-10-01T02:03:36.755Z,80.96
2022-10-01T02:06:21.561Z,80.70
2022-10-01T02:08:59.442Z,80.75
2022-10-01T02:11:37.031Z,80.89
2022-10-01T02:14:22.447Z,80.97
2022-10-01T02:17:02.166Z,80.89
2022-10-01T02:19:43.376Z,80.69
2022-10-01T02:22:18.880Z,81.21
2022-10-01T02:24:57.129Z,81.23
2022-10-01T02:27:32.386Z,80.86
2022-10-01T02:30:07.976Z,81.11
2022-10-01T02:32:44.706Z,81.71
2022-10-01T02:35:17.908Z,80.75
2022-10-01T02:37:52.865Z,80.96
2022-10-01T02:40:27.020Z,80.26
2022-10-01T02:43:01.378Z,80.66
2022-10-01T02:45:35.607Z,80.68
2022-10-01T02:48:10.089Z,81.05
2022-10-01T02:50:45.592Z,81.11
2022-10-01T02:53:23.759Z,81.30
2022-10-01T02:55:54.196Z,81.16
2022-10-01T02:58:22.478Z,81.56
2022-10-01T03:00:51.361Z,81.51
2022-10-01T03:03:21.533Z,81.24
2022-10-01T03:05:50.358Z,81.41
2022-10-01T03:08:19.521Z,81.37
2022-10-01T03:10:48.309Z,82.01
2022-10-01T03:13:18.625Z,81.87
2022-10-01T03:15:48.240Z,82.10
2022-10-01T03:18:16.933Z,81.78
2022-10-01T03:20:49.619Z,82.04
2022-10-01T03:23:18.240Z,82.23
2022-10-01T03:25:46.911Z,82.28
2022-10-01T03:28:15.688Z,82.44
2022-10-01T03:30:45.465Z,82.31
2022-10-01T03:33:14.142Z,82.43
2022-10-01T03:35:42.872Z,82.21
2022-10-01T03:38:13.866Z,82.51
2022-10-01T03:40:42.559Z,82.42
2022-10-01T03:43:12.303Z,82.65
2022-10-01T03:45:41.009Z,82.33
2022-10-01T03:48:10.044Z,82.65
2022-10-01T03:50:38.745Z,82.80
2022-10-01T03:53:07.849Z,82.73
2022-10-01T03:55:37.850Z,83.09
2022-10-01T03:58:07.085Z,83.01
2022-10-01T04:00:35.724Z,83.18
2022-10-01T04:03:04.350Z,83.11
2022-10-01T04:05:33.013Z,83.14
2022-10-01T04:08:02.294Z,82.98
2022-10-01T04:10:30.901Z,82.74
2022-10-01T04:13:01.350Z,82.86
2022-10-01T04:15:30.100Z,82.94
2022-10-01T04:17:58.772Z,82.57
2022-10-01T04:20:27.682Z,82.72
2022-10-01T04:22:56.255Z,82.78
2022-10-01T04:25:24.877Z,83.36
2022-10-01T04:28:01.469Z,83.63
2022-10-01T04:30:34.241Z,83.51
2022-10-01T04:33:03.275Z,83.01
2022-10-01T04:35:32.186Z,83.13
2022-10-01T04:38:03.468Z,83.15
2022-10-01T04:40:34.602Z,83.40
2022-10-01T04:43:06.624Z,83.56
2022-10-01T04:45:35.433Z,83.34
2022-10-01T04:48:05.129Z,83.95
2022-10-01T04:50:34.577Z,84.18
2022-10-01T04:53:03.205Z,83.85
2022-10-01T04:55:31.983Z,84.27
2022-10-01T04:58:00.845Z,84.22
2022-10-01T05:00:30.811Z,84.45
2022-10-01T05:02:59.743Z,84.44
2022-10-01T05:05:29.306Z,84.04
2022-10-01T05:07:57.991Z,84.58
2022-10-01T05:10:27.643Z,84.91
2022-10-01T05:12:56.870Z,84.89
2022-10-01T05:15:25.646Z,85.46
2022-10-01T05:17:56.147Z,85.28
2022-10-01T05:20:27.136Z,85.21
2022-10-01T05:22:56.996Z,85.42
2022-10-01T05:25:25.902Z,85.72
2022-10-01T05:27:54.531Z,85.81
2022-10-01T05:30:24.190Z,85.51
2022-10-01T05:33:01.355Z,86.04
2022-10-01T05:35:31.499Z,86.42
2022-10-01T05:38:03.969Z,86.37
2022-10-01T05:40:33.286Z,86.24
2022-10-01T05:43:07.916Z,86.88
2022-10-01T05:45:38.058Z,86.69
2022-10-01T05:48:12.914Z,86.80
2022-10-01T05:50:52.113Z,87.59
2022-10-01T05:53:25.162Z,87.18
2022-10-01T05:55:53.966Z,87.83
2022-10-01T05:58:22.541Z,87.76
2022-10-01T06:00:51.571Z,88.00
2022-10-01T06:03:22.198Z,88.05
2022-10-01T06:05:55.346Z,88.51
2022-10-01T06:08:24.612Z,88.25
2022-10-01T06:10:59.895Z,88.45
2022-10-01T06:13:29.485Z,88.51
2022-10-01T06:16:15.223Z,88.37
2022-10-01T06:18:45.493Z,89.29
2022-10-01T06:21:14.152Z,88.94
2022-10-01T06:23:44.408Z,88.85
2022-10-01T06:26:13.452Z,89.50
2022-10-01T06:28:42.535Z,89.46
2022-10-01T06:31:11.724Z,89.30
2022-10-01T06:33:40.538Z,89.67
2022-10-01T06:36:11.512Z,89.33
2022-10-01T06:38:40.376Z,89.87
2022-10-01T06:41:09.212Z,89.97
2022-10-01T06:43:38.139Z,90.10
2022-10-01T06:46:08.082Z,90.05
2022-10-01T06:48:50.456Z,89.89
2022-10-01T06:51:41.588Z,90.17
2022-10-01T06:54:14.651Z,90.41
2022-10-01T06:56:43.351Z,90.29
2022-10-01T06:59:12.451Z,90.39
2022-10-01T07:01:41.710Z,90.45
2022-10-01T07:04:10.829Z,90.52
2022-10-01T07:06:45.903Z,90.27
2022-10-01T07:09:16.219Z,90.28
2022-10-01T07:11:46.543Z,90.73
2022-10-01T07:14:15.579Z,90.71
2022-10-01T07:16:44.361Z,91.27
2022-10-01T07:19:14.248Z,91.19
2022-10-01T07:21:46.971Z,91.34
2022-10-01T07:24:15.805Z,91.28
2022-10-01T07:26:44.579Z,91.49
2022-10-01T07:29:13.341Z,91.11
2022-10-01T07:31:42.304Z,91.37
2022-10-01T07:34:11.427Z,91.61
2022-10-01T07:36:45.662Z,91.54
2022-10-01T07:39:16.081Z,91.63
2022-10-01T07:41:45.297Z,91.46
2022-10-01T07:44:14.000Z,91.71
2022-10-01T07:46:42.838Z,92.17
2022-10-01T07:49:13.004Z,92.25
2022-10-01T07:52:03.651Z,92.58
2022-10-01T07:54:34.929Z,92.73
2022-10-01T07:57:35.502Z,93.06
2022-10-01T08:00:08.649Z,92.98
2022-10-01T08:02:41.843Z,93.24
2022-10-01T08:05:25.462Z,93.00
2022-10-01T08:07:55.277Z,93.14
2022-10-01T08:10:25.373Z,93.29
2022-10-01T08:13:00.762Z,93.07
2022-10-01T08:15:53.026Z,93.47
2022-10-01T08:18:24.058Z,93.67
2022-10-01T08:21:05.289Z,93.56
2022-10-01T08:23:38.149Z,93.96
2022-10-01T08:26:15.235Z,93.74
2022-10-01T08:28:44.626Z,95.10
2022-10-01T08:31:25.788Z,94.77
2022-10-01T08:34:03.337Z,94.81
2022-10-01T08:36:38.321Z,94.59
2022-10-01T08:39:24.782Z,94.86
2022-10-01T08:42:17.955Z,94.69
2022-10-01T08:44:50.281Z,95.26
2022-10-01T08:47:37.331Z,95.37
2022-10-01T08:50:21.407Z,95.23
2022-10-01T08:52:59.325Z,95.74
2022-10-01T08:55:36.642Z,96.05
2022-10-01T08:58:13.637Z,96.04
2022-10-01T09:00:47.898Z,96.04
2022-10-01T09:03:19.291Z,95.90
2022-10-01T09:06:16.762Z,95.72
2022-10-01T09:09:23.864Z,95.91
2022-10-01T09:12:21.155Z,95.89
2022-10-01T09:15:19.428Z,95.94
2022-10-01T09:18:05.399Z,93.31
2022-10-01T09:20:40.992Z,94.09
2022-10-01T09:23:25.561Z,94.09
2022-10-01T09:26:34.319Z,94.01
2022-10-01T09:29:06.825Z,93.77
2022-10-01T09:31:45.646Z,93.12
2022-10-01T09:34:33.934Z,92.97
2022-10-01T09:37:18.806Z,93.21
2022-10-01T09:40:03.403Z,92.19
2022-10-01T09:42:32.983Z,92.30
2022-10-01T09:45:02.317Z,91.52
2022-10-01T09:47:35.090Z,89.49
2022-10-01T09:50:25.852Z,88.96
2022-10-01T09:53:02.940Z,89.15
2022-10-01T09:55:42.599Z,88.70
2022-10-01T09:58:18.639Z,89.34
2022-10-01T10:00:55.423Z,88.70
2022-10-01T10:03:33.666Z,88.19
2022-10-01T10:06:04.547Z,87.36
2022-10-01T10:08:42.893Z,86.45
2022-10-01T10:11:24.437Z,86.41
2022-10-01T10:14:03.738Z,85.80
2022-10-01T10:16:38.798Z,83.40
2022-10-01T10:19:22.832Z,82.32
2022-10-01T10:21:56.755Z,80.93
2022-10-01T10:24:32.845Z,81.39
2022-10-01T10:27:46.113Z,82.49
2022-10-01T10:30:39.100Z,82.70
2022-10-01T10:33:08.398Z,83.08
2022-10-01T10:35:42.966Z,83.78
2022-10-01T10:38:20.909Z,83.82
2022-10-01T10:40:55.356Z,83.77
2022-10-01T10:43:30.465Z,85.37
2022-10-01T10:46:00.289Z,85.69
2022-10-01T10:48:33.752Z,86.47
2022-10-01T10:51:07.246Z,86.37
2022-10-01T10:53:45.405Z,86.75
2022-10-01T10:56:23.436Z,87.33
2022-10-01T10:58:55.352Z,87.07
2022-10-01T11:01:32.901Z,87.69
2022-10-01T11:04:04.599Z,87.97
2022-10-01T11:06:35.403Z,88.24
2022-10-01T11:09:23.290Z,88.92
2022-10-01T11:12:08.574Z,89.30
2022-10-01T11:14:56.585Z,89.63
2022-10-01T11:18:19.330Z,90.03
2022-10-01T11:21:31.838Z,89.93
2022-10-01T11:24:54.041Z,90.08
2022-10-01T11:27:36.350Z,90.11
2022-10-01T11:31:06.547Z,90.45
2022-10-01T11:33:50.697Z,90.13
2022-10-01T11:37:49.681Z,90.22
2022-10-01T11:40:29.379Z,90.50
2022-10-01T11:43:09.480Z,90.69
2022-10-01T11:45:47.522Z,90.78
2022-10-01T11:48:30.460Z,90.73
2022-10-01T11:57:23.439Z,91.03
2022-10-01T12:01:27.638Z,90.95
2022-10-01T12:04:39.367Z,91.16
2022-10-01T12:07:18.551Z,91.36
2022-10-01T12:14:24.367Z,91.82
2022-10-01T12:17:30.555Z,92.14
2022-10-01T12:20:32.872Z,91.98
2022-10-01T12:23:25.266Z,91.94
2022-10-01T12:27:10.866Z,92.47
2022-10-01T12:40:07.951Z,93.29
2022-10-01T12:43:18.703Z,93.37
2022-10-01T12:46:02.568Z,93.32
2022-10-01T12:49:02.450Z,93.66
2022-10-01T12:51:43.327Z,93.86
2022-10-01T12:55:08.861Z,93.39
2022-10-01T12:57:56.994Z,93.50
2022-10-01T13:00:31.413Z,93.92
2022-10-01T13:03:39.580Z,94.39
2022-10-01T13:06:32.369Z,94.13
2022-10-01T13:09:31.780Z,93.46
2022-10-01T13:12:27.481Z,93.85
2022-10-01T13:14:59.431Z,93.74
2022-10-01T13:18:04.259Z,93.94
2022-10-01T13:20:46.371Z,93.98
2022-10-01T13:23:30.878Z,94.03
2022-10-01T13:26:46.662Z,93.83
2022-10-01T13:29:55.722Z,94.05
2022-10-01T13:32:37.542Z,94.27
2022-10-01T13:35:45.917Z,94.17
2022-10-01T13:38:30.513Z,95.20
2022-10-01T13:41:03.251Z,94.42
2022-10-01T13:43:34.967Z,94.78
2022-10-01T13:46:10.688Z,94.62
2022-10-01T13:48:49.612Z,95.07
2022-10-01T13:51:21.824Z,94.98
2022-10-01T13:54:00.808Z,94.84
2022-10-01T13:56:35.414Z,95.27
2022-10-01T13:59:33.737Z,95.02
2022-10-01T14:02:03.990Z,95.48
2022-10-01T14:04:41.991Z,95.94
2022-10-01T14:07:22.068Z,95.47
2022-10-01T14:09:55.692Z,95.51
2022-10-01T14:12:50.202Z,95.65
2022-10-01T14:15:52.215Z,95.21
2022-10-01T14:18:25.903Z,95.22
2022-10-01T14:21:14.208Z,95.76
2022-10-01T14:23:59.414Z,95.59
2022-10-01T14:26:43.771Z,95.45
2022-10-01T14:29:33.685Z,95.56
2022-10-01T14:32:18.829Z,95.76
2022-10-01T14:35:03.672Z,95.61
2022-10-01T14:38:02.197Z,95.20
2022-10-01T14:40:41.099Z,94.38
2022-10-01T14:43:21.843Z,94.58
2022-10-01T14:45:58.767Z,94.29
2022-10-01T14:48:32.151Z,94.48
2022-10-01T14:51:31.287Z,94.83
2022-10-01T14:54:03.646Z,94.91
2022-10-01T14:56:39.086Z,95.69
2022-10-01T14:59:29.558Z,95.35
2022-10-01T15:02:17.435Z,95.47
2022-10-01T15:04:53.373Z,95.58
2022-10-01T15:07:24.243Z,95.16
2022-10-01T15:09:54.407Z,95.05
2022-10-01T15:12:25.020Z,95.17
2022-10-01T15:14:56.960Z,95.25
2022-10-01T15:17:28.652Z,95.11
2022-10-01T15:19:58.712Z,95.65
2022-10-01T15:22:31.384Z,96.08
2022-10-01T15:25:03.585Z,95.74
2022-10-01T15:27:34.229Z,95.63
2022-10-01T15:30:15.393Z,95.64
2022-10-01T15:32:45.448Z,95.71
2022-10-01T15:35:19.018Z,96.06
2022-10-01T15:37:50.509Z,95.95
2022-10-01T15:40:30.988Z,95.87
2022-10-01T15:43:26.704Z,95.86
2022-10-01T15:46:22.928Z,95.35
2022-10-01T15:49:13.786Z,95.44
2022-10-01T15:52:12.401Z,95.13
2022-10-01T15:54:44.363Z,95.01
2022-10-01T15:57:22.034Z,94.33
2022-10-01T15:59:55.441Z,94.66
2022-10-01T16:02:28.389Z,95.65
2022-10-01T16:05:06.844Z,95.73
2022-10-01T16:07:35.706Z,94.94
2022-10-01T16:10:27.304Z,95.05
2022-10-01T16:12:57.410Z,94.65
2022-10-01T16:15:29.150Z,94.28
2022-10-01T16:18:02.607Z,94.61
2022-10-01T16:20:45.595Z,94.50
2022-10-01T16:23:37.932Z,94.69
2022-10-01T16:26:28.170Z,95.30
2022-10-01T16:29:01.607Z,95.87
2022-10-01T16:31:32.095Z,95.39
2022-10-01T16:34:02.836Z,95.35
2022-10-01T16:36:34.433Z,95.27
2022-10-01T16:39:03.670Z,95.39
2022-10-01T16:41:34.642Z,95.51
2022-10-01T16:44:07.174Z,96.13
2022-10-01T16:46:36.832Z,96.27
2022-10-01T16:49:15.270Z,95.97
2022-10-01T16:51:44.290Z,96.14
2022-10-01T16:54:23.608Z,96.60
2022-10-01T16:56:55.194Z,96.10
2022-10-01T16:59:25.486Z,95.68
2022-10-01T17:01:56.456Z,96.05
2022-10-01T17:04:28.367Z,95.86
2022-10-01T17:06:59.210Z,95.44
2022-10-01T17:09:28.202Z,95.31
2022-10-01T17:12:00.791Z,95.10
2022-10-01T17:14:30.917Z,94.83
2022-10-01T17:16:59.703Z,94.67
2022-10-01T17:19:28.603Z,94.90
2022-10-01T17:21:57.549Z,95.16
2022-10-01T17:24:26.771Z,95.20
2022-10-01T17:26:55.737Z,94.90
2022-10-01T17:29:24.498Z,95.18
2022-10-01T17:31:58.022Z,94.53
2022-10-01T17:34:27.164Z,94.39
2022-10-01T17:36:56.855Z,94.64
2022-10-01T17:39:26.971Z,94.67
2022-10-01T17:41:55.995Z,95.03
2022-10-01T17:44:25.670Z,94.94
2022-10-01T17:46:59.914Z,95.49
2022-10-01T17:49:29.454Z,95.71
2022-10-01T17:51:59.083Z,95.47
2022-10-01T17:54:30.843Z,95.68
2022-10-01T17:57:00.234Z,95.60
2022-10-01T17:59:30.058Z,95.65
2022-10-01T18:02:01.459Z,95.50
2022-10-01T18:04:31.137Z,95.91
2022-10-01T18:07:01.616Z,96.71
2022-10-01T18:09:31.512Z,96.20
2022-10-01T18:12:02.345Z,96.36
2022-10-01T18:14:32.766Z,96.51
2022-10-01T18:17:04.090Z,96.23
2022-10-01T18:19:57.592Z,96.34
2022-10-01T18:22:27.548Z,96.29
2022-10-01T18:24:59.368Z,96.25
2022-10-01T18:27:30.299Z,96.05
2022-10-01T18:30:00.759Z,96.31
2022-10-01T18:32:44.286Z,96.11
2022-10-01T18:35:31.292Z,96.12
2022-10-01T18:38:11.170Z,96.07
2022-10-01T18:40:45.701Z,96.64
2022-10-01T18:43:23.466Z,96.58
2022-10-01T18:46:16.230Z,96.20
2022-10-01T18:49:27.400Z,96.80
2022-10-01T18:52:21.318Z,96.62
2022-10-01T18:55:52.773Z,97.54
2022-10-01T18:59:10.690Z,97.52
2022-10-01T19:01:55.602Z,98.21
2022-10-01T19:04:54.513Z,97.71
2022-10-01T19:07:41.175Z,97.51
2022-10-01T19:10:24.301Z,98.00
2022-10-01T19:13:14.374Z,97.89
2022-10-01T19:16:01.874Z,97.43
2022-10-01T19:18:57.425Z,96.91
2022-10-01T19:21:43.295Z,96.73
2022-10-01T19:24:35.024Z,96.09
2022-10-01T19:27:21.306Z,96.15
2022-10-01T19:30:10.807Z,96.55
2022-10-01T19:32:48.323Z,96.08
2022-10-01T19:35:23.987Z,96.02
2022-10-01T19:37:59.831Z,96.45
2022-10-01T19:40:36.656Z,96.54
2022-10-01T19:43:23.840Z,96.52
2022-10-01T19:46:02.090Z,96.26
2022-10-01T19:48:43.239Z,96.31
2022-10-01T19:51:20.638Z,96.05
2022-10-01T19:54:00.437Z,95.77
2022-10-01T19:56:33.184Z,95.79
2022-10-01T19:59:09.061Z,95.88
2022-10-01T20:01:46.612Z,96.24
2022-10-01T20:04:32.447Z,95.98
2022-10-01T20:07:11.326Z,95.73
2022-10-01T20:09:49.146Z,95.84
2022-10-01T20:12:34.146Z,96.19
2022-10-01T20:15:20.201Z,96.19
2022-10-01T20:18:13.296Z,96.45
2022-10-01T20:21:02.511Z,95.96
2022-10-01T20:23:45.109Z,95.99
2022-10-01T20:26:28.297Z,96.64
2022-10-01T20:29:36.845Z,96.16
2022-10-01T20:32:20.374Z,96.65
2022-10-01T20:35:12.758Z,96.26
2022-10-01T20:38:08.339Z,96.31
2022-10-01T20:40:45.586Z,95.87
2022-10-01T20:43:30.703Z,95.99
2022-10-01T20:46:08.159Z,95.49
2022-10-01T20:48:44.777Z,95.49
2022-10-01T20:51:24.268Z,95.57
2022-10-01T20:54:00.531Z,95.93
2022-10-01T20:56:36.090Z,96.46
2022-10-01T20:59:18.152Z,95.81
2022-10-01T21:02:02.420Z,95.26
2022-10-01T21:04:38.851Z,95.24
2022-10-01T21:07:25.363Z,95.43
2022-10-01T21:09:58.953Z,95.13
2022-10-01T21:12:37.282Z,95.17
2022-10-01T21:15:16.473Z,95.10
2022-10-01T21:17:56.842Z,94.64
2022-10-01T21:20:45.522Z,94.46
2022-10-01T21:23:35.184Z,94.58
2022-10-01T21:26:19.429Z,94.18
2022-10-01T21:29:30.492Z,93.82
2022-10-01T21:32:20.315Z,94.47
2022-10-01T21:35:10.270Z,94.44
2022-10-01T21:37:57.649Z,94.45
2022-10-01T21:40:49.383Z,94.61
2022-10-01T21:43:40.620Z,94.55
2022-10-01T21:46:22.622Z,94.32
2022-10-01T21:49:05.040Z,93.73
2022-10-01T21:51:53.468Z,94.15
2022-10-01T21:55:03.352Z,94.05
2022-10-01T21:58:09.401Z,94.02
2022-10-01T22:00:38.662Z,94.27
2022-10-01T22:03:19.822Z,93.80
2022-10-01T22:06:03.580Z,93.71
2022-10-01T22:09:01.857Z,94.09
2022-10-01T22:11:36.306Z,94.04
2022-10-01T22:14:16.091Z,93.77
2022-10-01T22:16:54.445Z,94.10
2022-10-01T22:19:29.327Z,94.26
2022-10-01T22:22:09.580Z,93.91
2022-10-01T22:24:45.342Z,94.26
2022-10-01T22:27:21.438Z,94.06
2022-10-01T22:29:58.105Z,94.42
2022-10-01T22:32:35.120Z,93.86
2022-10-01T22:35:13.767Z,93.72
2022-10-01T22:37:52.191Z,93.45
2022-10-01T22:40:29.570Z,93.46
2022-10-01T22:43:07.006Z,93.54
2022-10-01T22:45:54.811Z,93.40
2022-10-01T22:48:49.742Z,93.88
2022-10-01T22:51:39.190Z,93.63
2022-10-01T22:54:50.130Z,93.61
2022-10-01T22:57:46.129Z,93.54
2022-10-01T23:00:17.574Z,93.86
2022-10-01T23:03:03.276Z,93.59
2022-10-01T23:05:53.315Z,93.79
2022-10-01T23:08:33.926Z,93.62
2022-10-01T23:11:22.555Z,93.20
2022-10-01T23:14:08.134Z,93.26
2022-10-01T23:16:51.931Z,92.84
2022-10-01T23:19:41.043Z,93.53
2022-10-01T23:22:22.488Z,93.42
2022-10-01T23:25:14.804Z,93.51
2022-10-01T23:28:01.607Z,93.90
2022-10-01T23:30:48.630Z,93.50
2022-10-01T23:33:42.962Z,93.47
2022-10-01T23:36:32.090Z,93.43
2022-10-01T23:39:41.049Z,93.62
2022-10-01T23:42:29.601Z,93.76
2022-10-01T23:45:17.339Z,93.70
2022-10-01T23:47:58.617Z,93.71
2022-10-01T23:50:36.280Z,93.83
2022-10-01T23:53:16.110Z,93.79
2022-10-01T23:56:10.851Z,94.30
2022-10-01T23:58:47.615Z,94.75
